Time;durP1;ratioP1;P1;durP2;ratioP2;P2;SDS_P1;SDS_P2;PMS_P1;PMS_P2;Temp;Humidity;BMP_temperature;BMP_pressure;BME280_temperature;BME280_humidity;BME280_pressure;Samples;Min_cycle;Max_cycle;Signal;HPM_P1;HPM_P2
2023/03/13 00:00:44;;;;;;;;;3.00;3.00;;;;;14.89;77.47;100181.38;2101382;27;46155;-66
2023/03/13 00:01:48;;;;;;;;;3.00;3.00;;;;;14.90;77.28;100175.09;2099025;27;46506;-65
2023/03/13 00:02:49;;;;;;;;;5.75;4.00;;;;;14.89;77.31;100176.91;2106467;27;46798;-65
2023/03/13 00:03:49;;;;;;;;;2.25;2.25;;;;;14.90;77.41;100183.09;2106941;27;44982;-65
2023/03/13 00:04:50;;;;;;;;;4.33;4.33;;;;;14.91;77.18;100172.34;2103410;27;47061;-67
2023/03/13 00:05:55;;;;;;;;;3.33;3.33;;;;;14.91;77.70;100172.34;2105266;28;46334;-66
2023/03/13 00:06:56;;;;;;;;;3.50;3.25;;;;;14.91;77.12;100169.66;2106642;27;46492;-66
2023/03/13 00:07:56;;;;;;;;;3.00;3.00;;;;;14.91;77.38;100161.66;2101823;27;46771;-66
2023/03/13 00:08:59;;;;;;;;;4.33;4.33;;;;;14.92;77.03;100165.19;2104156;27;46649;-65
2023/03/13 00:09:59;;;;;;;;;3.75;3.75;;;;;14.91;77.16;100156.31;2100108;28;46718;-65
2023/03/13 00:11:04;;;;;;;;;1.33;1.33;;;;;14.92;77.26;100174.06;2092811;28;46568;-64
2023/03/13 00:12:05;;;;;;;;;2.00;2.00;;;;;14.93;76.66;100169.59;2098664;28;46506;-65
2023/03/13 00:13:06;;;;;;;;;3.67;3.67;;;;;14.93;77.15;100173.13;2100787;27;46861;-66
2023/03/13 00:14:07;;;;;;;;;2.50;2.50;;;;;14.94;76.94;100171.31;2103887;27;46272;-65
2023/03/13 00:15:08;;;;;;;;;5.00;3.00;;;;;14.94;77.18;100160.63;2105146;27;46603;-64
2023/03/13 00:16:11;;;;;;;;;3.33;3.33;;;;;14.94;77.12;100164.16;2076131;28;46184;-66
2023/03/13 00:17:11;;;;;;;;;2.25;2.25;;;;;14.94;77.23;100163.31;2075056;28;47047;-65
2023/03/13 00:18:12;;;;;;;;;2.33;2.33;;;;;14.97;77.38;100168.50;2109358;27;46345;-65
2023/03/13 00:19:14;;;;;;;;;1.67;1.67;;;;;14.96;77.30;100164.09;2098443;27;46820;-65
2023/03/13 00:20:16;;;;;;;;;1.75;1.75;;;;;14.97;77.01;100156.00;2096342;28;46572;-65
2023/03/13 00:21:18;;;;;;;;;2.00;2.00;;;;;14.98;77.05;100155.06;2102130;27;46867;-64
2023/03/13 00:22:18;;;;;;;;;1.25;1.25;;;;;14.98;77.04;100160.41;2104165;27;46732;-64
2023/03/13 00:23:19;;;;;;;;;2.00;2.00;;;;;14.98;77.20;100165.75;2103168;27;46702;-66
2023/03/13 00:24:19;;;;;;;;;3.67;3.67;;;;;14.99;77.16;100166.59;2111548;27;46969;-65
2023/03/13 00:25:19;;;;;;;;;2.67;2.00;;;;;14.98;77.16;100159.53;2104400;27;46533;-65
2023/03/13 00:26:22;;;;;;;;;2.67;2.67;;;;;15.00;77.05;100160.34;2109505;27;46308;-66
2023/03/13 00:27:23;;;;;;;;;2.25;2.25;;;;;15.00;76.87;100149.66;2100875;28;46466;-66
2023/03/13 00:28:23;;;;;;;;;2.00;2.00;;;;;14.99;77.13;100159.50;2096540;28;46641;-65
2023/03/13 00:29:23;;;;;;;;;4.00;3.67;;;;;15.01;76.56;100156.75;2109461;27;46272;-66
2023/03/13 00:30:24;;;;;;;;;1.67;1.67;;;;;15.02;76.74;100153.13;2103063;27;46214;-64
2023/03/13 00:31:29;;;;;;;;;2.00;2.00;;;;;15.02;76.74;100158.47;2102922;27;46426;-65
2023/03/13 00:32:30;;;;;;;;;1.50;1.50;;;;;15.02;76.79;100159.34;2106295;27;46191;-65
2023/03/13 00:33:34;;;;;;;;;3.00;3.00;;;;;15.02;77.16;100151.31;2108183;27;47200;-64
2023/03/13 00:34:35;;;;;;;;;2.00;2.00;;;;;15.04;76.85;100150.38;2107179;27;46761;-65
2023/03/13 00:35:35;;;;;;;;;2.00;2.00;;;;;15.04;77.05;100145.03;2108987;27;46245;-65
2023/03/13 00:36:36;;;;;;;;;2.00;2.00;;;;;15.06;76.92;100159.16;2095372;28;46283;-65
2023/03/13 00:37:36;;;;;;;;;2.33;2.33;;;;;15.06;76.66;100146.69;2097949;28;46280;-65
2023/03/13 00:38:37;;;;;;;;;1.33;1.33;;;;;15.06;76.79;100141.31;2105207;27;46336;-65
2023/03/13 00:39:38;;;;;;;;;1.00;1.00;;;;;15.07;77.09;100144.88;2104804;27;46579;-65
2023/03/13 00:40:38;;;;;;;;;1.00;1.00;;;;;15.06;77.13;100146.69;2100359;28;46291;-66
2023/03/13 00:41:39;;;;;;;;;0.33;0.33;;;;;15.08;76.87;100146.59;2097755;27;46251;-65
2023/03/13 00:42:39;;;;;;;;;3.00;3.00;;;;;15.09;76.77;100141.16;2098675;28;46306;-65
2023/03/13 00:43:41;;;;;;;;;1.33;1.33;;;;;15.09;76.30;100143.84;2109404;27;46480;-65
2023/03/13 00:44:41;;;;;;;;;0.00;0.00;;;;;15.08;76.66;100139.44;2117314;27;46808;-64
2023/03/13 00:45:42;;;;;;;;;1.67;1.00;;;;;15.08;76.73;100139.44;2093700;28;46681;-66
2023/03/13 00:46:42;;;;;;;;;2.00;2.00;;;;;15.08;76.78;100136.78;2095649;28;46427;-65
2023/03/13 00:47:42;;;;;;;;;2.33;2.33;;;;;15.08;76.96;100147.47;2105594;27;46189;-63
2023/03/13 00:48:43;;;;;;;;;1.00;1.00;;;;;15.09;76.71;100141.16;2104795;27;46692;-65
2023/03/13 00:49:43;;;;;;;;;1.33;1.00;;;;;15.10;76.74;100147.38;2106259;27;45740;-65
2023/03/13 00:50:44;;;;;;;;;1.00;1.00;;;;;15.10;76.20;100144.72;2098181;28;46922;-64
2023/03/13 00:51:44;;;;;;;;;2.00;2.00;;;;;15.10;75.99;100147.38;2095695;28;45906;-66
2023/03/13 00:52:44;;;;;;;;;2.33;2.33;;;;;15.09;76.56;100142.97;2107896;27;46167;-64
2023/03/13 00:53:45;;;;;;;;;2.33;2.33;;;;;15.08;76.52;100131.44;2104038;27;46403;-66
2023/03/13 00:54:46;;;;;;;;;1.25;1.25;;;;;15.08;76.43;100134.09;2106129;27;46906;-65
2023/03/13 00:56:01;;;;;;;;;1.00;1.00;;;;;15.07;76.70;100139.53;2106150;27;46562;-64
2023/03/13 00:57:02;;;;;;;;;5.25;2.50;;;;;15.08;76.39;100139.44;2102569;27;46531;-65
2023/03/13 00:58:02;;;;;;;;;1.67;1.33;;;;;15.07;76.44;100139.53;2078047;28;46612;-65
2023/03/13 00:59:03;;;;;;;;;0.00;0.00;;;;;15.06;76.75;100137.78;2080809;28;46979;-65
2023/03/13 01:00:07;;;;;;;;;1.67;1.67;;;;;15.07;76.43;100144.88;2104348;27;46576;-65
2023/03/13 01:01:11;;;;;;;;;0.75;0.75;;;;;15.08;76.28;100146.59;2100964;27;46663;-66
2023/03/13 01:02:11;;;;;;;;;3.00;3.00;;;;;15.08;76.34;100151.94;2104225;27;46466;-66
2023/03/13 01:03:12;;;;;;;;;2.67;1.33;;;;;15.09;76.70;100148.31;2104042;27;46542;-65
2023/03/13 01:04:12;;;;;;;;;1.33;1.33;;;;;15.09;76.65;100148.31;2097925;28;45479;-65
2023/03/13 01:05:12;;;;;;;;;1.00;1.00;;;;;15.08;76.38;100155.47;2096950;28;46519;-64
2023/03/13 01:06:16;;;;;;;;;2.00;2.00;;;;;15.08;76.49;100143.91;2104876;27;46848;-65
2023/03/13 01:07:17;;;;;;;;;1.50;1.50;;;;;15.08;76.82;100146.59;2105505;27;46953;-67
2023/03/13 01:08:17;;;;;;;;;3.67;2.00;;;;;15.10;77.04;100147.38;2104809;27;46668;-65
2023/03/13 01:09:18;;;;;;;;;0.67;0.67;;;;;15.09;76.31;100140.31;2106015;27;46747;-65
2023/03/13 01:10:19;;;;;;;;;3.25;3.25;;;;;15.08;76.68;100141.25;2106639;27;46033;-67
2023/03/13 01:11:24;;;;;;;;;2.00;2.00;;;;;15.09;75.78;100142.97;2101677;27;46744;-65
2023/03/13 01:12:24;;;;;;;;;1.00;1.00;;;;;15.08;76.21;100135.91;2098652;28;47061;-65
2023/03/13 01:13:25;;;;;;;;;1.00;1.00;;;;;15.08;76.45;100138.56;2098574;28;46768;-66
2023/03/13 01:14:25;;;;;;;;;2.33;1.67;;;;;15.07;76.35;100131.50;2097310;28;46339;-65
2023/03/13 01:15:26;;;;;;;;;1.33;1.33;;;;;15.06;76.25;100133.31;2094430;28;46172;-66
2023/03/13 01:16:28;;;;;;;;;1.00;1.00;;;;;15.06;76.27;100127.97;2105662;27;46193;-65
2023/03/13 01:17:29;;;;;;;;;2.25;2.25;;;;;15.05;76.46;100120.91;2103502;27;46761;-65
2023/03/13 01:18:30;;;;;;;;;1.00;1.00;;;;;15.03;76.21;100122.78;2109833;27;46818;-65
2023/03/13 01:19:30;;;;;;;;;4.00;3.00;;;;;15.05;76.55;100104.88;2095682;28;46191;-66
2023/03/13 01:20:30;;;;;;;;;2.00;2.00;;;;;15.05;76.78;100101.31;2101073;28;46472;-65
2023/03/13 01:21:31;;;;;;;;;0.67;0.67;;;;;15.06;76.47;100103.06;2106528;27;46488;-66
2023/03/13 01:22:31;;;;;;;;;1.67;1.67;;;;;15.06;76.32;100098.56;2103262;27;46720;-64
2023/03/13 01:23:32;;;;;;;;;3.33;1.33;;;;;15.08;76.42;100109.19;2102903;27;46105;-64
2023/03/13 01:24:32;;;;;;;;;2.00;2.00;;;;;15.07;75.99;100102.97;2104736;27;46894;-65
2023/03/13 01:25:36;;;;;;;;;2.33;1.33;;;;;15.09;76.01;100102.91;2109958;27;46344;-65
2023/03/13 01:26:37;;;;;;;;;2.25;2.25;;;;;15.09;75.80;100105.56;2109055;27;46679;-65
2023/03/13 01:27:37;;;;;;;;;1.67;1.33;;;;;15.10;75.86;100101.94;2103577;27;46897;-65
2023/03/13 01:28:38;;;;;;;;;1.67;1.33;;;;;15.11;75.86;100093.00;2108021;27;46313;-65
2023/03/13 01:29:39;;;;;;;;;2.75;2.50;;;;;15.11;75.92;100085.84;2107809;27;45782;-64
2023/03/13 01:30:39;;;;;;;;;1.33;1.33;;;;;15.13;75.59;100085.78;2107415;27;46358;-64
2023/03/13 01:31:39;;;;;;;;;3.33;1.67;;;;;15.12;75.75;100081.34;2103740;27;46075;-65
2023/03/13 01:32:40;;;;;;;;;3.33;1.67;;;;;15.13;76.09;100088.47;2102154;27;46710;-64
2023/03/13 01:33:40;;;;;;;;;4.33;4.33;;;;;15.13;75.65;100083.97;2102280;27;46535;-64
2023/03/13 01:34:41;;;;;;;;;3.00;3.00;;;;;15.13;75.59;100075.09;2109140;27;46598;-64
2023/03/13 01:35:42;;;;;;;;;2.00;2.00;;;;;15.14;75.58;100084.84;2102178;27;46534;-66
2023/03/13 01:36:42;;;;;;;;;2.00;2.00;;;;;15.14;75.66;100082.16;2108957;27;45429;-64
2023/03/13 01:37:43;;;;;;;;;3.33;3.33;;;;;15.13;75.31;100067.06;2100020;27;46640;-65
2023/03/13 01:38:46;;;;;;;;;2.00;2.00;;;;;15.13;75.24;100077.78;2099314;28;46348;-65
2023/03/13 01:39:46;;;;;;;;;3.75;3.75;;;;;15.14;75.13;100080.34;2100385;27;47020;-65
2023/03/13 01:40:48;;;;;;;;;2.33;2.33;;;;;15.14;75.37;100076.81;2104283;27;46434;-64
2023/03/13 01:41:48;;;;;;;;;3.00;3.00;;;;;15.13;75.20;100078.63;2104069;27;46473;-64
2023/03/13 01:42:54;;;;;;;;;3.33;3.33;;;;;15.15;75.09;100070.53;2109005;27;46220;-64
2023/03/13 01:43:54;;;;;;;;;2.00;2.00;;;;;15.14;75.13;100077.69;2105384;27;46492;-65
2023/03/13 01:44:56;;;;;;;;;2.33;2.00;;;;;15.14;75.00;100075.00;2106367;27;46664;-65
2023/03/13 01:46:18;;;;;;;;;2.50;2.50;;;;;15.14;75.24;100080.34;2103293;28;46803;-66
2023/03/13 01:47:19;;;;;;;;;2.25;2.25;;;;;15.14;75.40;100075.00;2105729;27;46641;-65
2023/03/13 01:48:37;;;;;;;;;3.67;3.67;;;;;15.16;74.86;100080.28;2106933;27;46757;-65
2023/03/13 01:49:37;;;;;;;;;3.50;3.00;;;;;15.16;75.25;100074.94;2109116;27;46718;-64
2023/03/13 01:50:37;;;;;;;;;4.00;4.00;;;;;15.16;75.15;100070.44;2101674;27;46607;-64
2023/03/13 01:51:42;;;;;;;;;4.00;4.00;;;;;15.15;75.03;100079.41;2097206;28;45029;-65
2023/03/13 01:52:43;;;;;;;;;2.75;2.75;;;;;15.15;74.84;100075.88;2106510;27;47023;-64
2023/03/13 01:53:48;;;;;;;;;2.00;2.00;;;;;15.15;74.70;100073.19;2102896;27;46679;-64
2023/03/13 01:54:55;;;;;;;;;3.75;3.75;;;;;15.15;74.79;100065.19;2104214;28;46998;-66
2023/03/13 01:55:59;;;;;;;;;6.00;2.25;;;;;15.15;74.71;100065.19;2109370;27;46570;-65
2023/03/13 01:57:08;;;;;;;;;2.25;2.00;;;;;15.15;75.17;100051.81;2105007;27;46772;-65
2023/03/13 01:58:09;;;;;;;;;6.00;4.00;;;;;15.14;75.18;100050.97;2103491;27;45705;-65
2023/03/13 01:59:14;;;;;;;;;3.67;3.67;;;;;15.16;75.33;100048.19;2109674;27;46541;-66
2023/03/13 02:00:21;;;;;;;;;3.00;3.00;;;;;15.14;74.83;100037.59;2105568;27;46408;-65
2023/03/13 02:01:23;;;;;;;;;6.00;3.50;;;;;15.16;75.13;100037.50;2107220;27;46707;-65
2023/03/13 02:02:25;;;;;;;;;2.75;2.50;;;;;15.16;74.48;100025.00;2104565;27;46397;-67
2023/03/13 02:03:27;;;;;;;;;5.75;4.25;;;;;15.15;74.58;100023.28;2105343;27;46415;-64
2023/03/13 02:04:33;;;;;;;;;3.25;3.25;;;;;15.16;74.67;100021.47;2108219;27;46852;-64
2023/03/13 02:05:34;;;;;;;;;4.25;2.75;;;;;15.16;74.63;100026.81;2109450;27;46979;-65
2023/03/13 02:06:40;;;;;;;;;3.33;3.33;;;;;15.16;74.56;100021.47;2104829;27;46176;-64
2023/03/13 02:07:44;;;;;;;;;2.50;2.50;;;;;15.17;74.40;100031.22;2104210;27;46346;-65
2023/03/13 02:08:50;;;;;;;;;2.00;1.50;;;;;15.16;74.94;100035.72;2109764;27;45738;-64
2023/03/13 02:09:53;;;;;;;;;4.75;3.00;;;;;15.15;74.75;100033.97;2103747;27;46730;-65
2023/03/13 02:11:08;;;;;;;;;4.00;2.50;;;;;15.14;74.80;100031.38;2108235;27;46372;-65
2023/03/13 02:12:12;;;;;;;;;4.50;4.25;;;;;15.14;74.54;100037.59;2100562;27;46412;-64
2023/03/13 02:13:16;;;;;;;;;3.75;2.25;;;;;15.13;74.79;100035.00;2104513;27;46970;-64
2023/03/13 02:14:19;;;;;;;;;2.75;2.75;;;;;15.14;74.90;100031.38;2102994;28;46096;-65
2023/03/13 02:15:23;;;;;;;;;2.00;2.00;;;;;15.13;74.56;100037.69;2101759;27;46435;-65
2023/03/13 02:16:24;;;;;;;;;2.75;2.75;;;;;15.13;74.52;100032.34;2104828;27;46328;-65
2023/03/13 02:17:25;;;;;;;;;4.00;4.00;;;;;15.13;74.37;100035.88;2103177;27;46769;-65
2023/03/13 02:18:26;;;;;;;;;2.75;2.75;;;;;15.12;74.36;100023.44;2104384;27;45696;-65
2023/03/13 02:19:50;;;;;;;;;3.33;3.33;;;;;15.12;74.31;100020.78;2104181;27;46197;-65
2023/03/13 02:20:59;;;;;;;;;3.25;3.25;;;;;15.13;74.60;100019.84;2103960;27;46703;-64
2023/03/13 02:22:13;;;;;;;;;2.75;2.50;;;;;15.13;74.44;100027.00;2101530;27;46968;-65
2023/03/13 02:23:30;;;;;;;;;3.00;3.00;;;;;15.14;74.52;100026.03;2104328;27;46371;-64
2023/03/13 02:24:59;;;;;;;;;2.50;2.00;;;;;15.12;74.50;100028.78;2103001;27;46415;-65
2023/03/13 02:26:00;;;;;;;;;4.25;3.00;;;;;15.12;74.38;100030.56;2068158;28;45878;-67
2023/03/13 02:27:00;;;;;;;;;4.67;4.33;;;;;15.12;74.36;100033.25;2070247;28;46306;-65
2023/03/13 02:28:06;;;;;;;;;2.67;2.00;;;;;15.12;74.13;100026.13;2070091;28;46268;-65
2023/03/13 02:29:08;;;;;;;;;4.50;4.50;;;;;15.12;74.36;100036.81;2070385;28;46687;-64
2023/03/13 02:30:09;;;;;;;;;5.00;3.75;;;;;15.11;74.49;100024.38;2071617;28;46679;-64
2023/03/13 02:31:11;;;;;;;;;6.00;4.50;;;;;15.11;74.49;100026.19;2069080;28;46708;-64
2023/03/13 02:32:11;;;;;;;;;3.00;3.00;;;;;15.11;74.07;100023.50;2069760;28;46570;-66
2023/03/13 02:33:13;;;;;;;;;2.67;2.67;;;;;15.10;74.23;100016.44;2069208;28;46736;-66
2023/03/13 02:34:17;;;;;;;;;4.50;3.25;;;;;15.09;74.00;100018.25;2070518;28;45621;-64
2023/03/13 02:35:21;;;;;;;;;3.25;3.25;;;;;15.11;74.28;100005.66;2069998;28;46719;-66
2023/03/13 02:36:22;;;;;;;;;5.00;4.25;;;;;15.11;74.01;100002.13;2072525;28;46434;-65
2023/03/13 02:37:26;;;;;;;;;5.50;5.50;;;;;15.10;74.48;99995.91;2068101;28;46416;-65
2023/03/13 02:38:30;;;;;;;;;2.75;2.75;;;;;15.09;73.81;99994.19;2066382;28;46530;-65
2023/03/13 02:39:32;;;;;;;;;4.00;4.00;;;;;15.10;74.42;99995.91;2064211;28;46347;-64
2023/03/13 02:40:44;;;;;;;;;4.50;3.50;;;;;15.10;74.33;100008.41;2068135;28;47092;-65
2023/03/13 02:41:46;;;;;;;;;5.50;4.00;;;;;15.11;74.35;100002.13;2066927;28;46914;-64
2023/03/13 02:42:49;;;;;;;;;2.75;2.75;;;;;15.10;74.04;100005.75;2065584;28;46748;-64
2023/03/13 02:43:49;;;;;;;;;4.75;3.50;;;;;15.10;73.69;100006.59;2069568;28;46731;-65
2023/03/13 02:44:51;;;;;;;;;4.00;4.00;;;;;15.10;73.72;100011.94;2070263;28;46480;-65
2023/03/13 02:46:01;;;;;;;;;5.50;5.00;;;;;15.10;74.25;100003.06;2069037;28;46565;-65
2023/03/13 02:47:01;;;;;;;;;3.25;2.75;;;;;15.10;74.01;100011.94;2069349;28;46326;-65
2023/03/13 02:48:02;;;;;;;;;4.00;4.00;;;;;15.11;74.17;100012.81;2068925;28;46502;-63
2023/03/13 02:49:21;;;;;;;;;4.00;3.00;;;;;15.11;73.83;100013.69;2068837;28;46518;-65
2023/03/13 02:50:22;;;;;;;;;4.00;3.50;;;;;15.11;74.21;100012.81;2068683;28;46462;-65
2023/03/13 02:51:27;;;;;;;;;3.50;3.00;;;;;15.11;74.17;100023.50;2069758;28;46802;-64
2023/03/13 02:52:36;;;;;;;;;6.25;4.25;;;;;15.12;74.01;100015.44;2070037;28;46725;-64
2023/03/13 02:53:37;;;;;;;;;2.50;2.50;;;;;15.13;74.28;100011.81;2067859;28;46484;-65
2023/03/13 02:54:39;;;;;;;;;6.00;4.33;;;;;15.14;73.76;100012.69;2070018;28;46645;-64
2023/03/13 02:55:41;;;;;;;;;1.50;1.50;;;;;15.14;73.89;99997.50;2069023;28;46730;-64
2023/03/13 02:56:44;;;;;;;;;4.25;4.25;;;;;15.14;74.11;99992.16;2070387;28;46853;-64
2023/03/13 02:57:45;;;;;;;;;4.25;3.00;;;;;15.15;74.17;99990.34;2065816;28;46884;-64
2023/03/13 02:58:45;;;;;;;;;3.67;3.67;;;;;15.16;73.68;100010.78;2069496;28;46091;-65
2023/03/13 02:59:45;;;;;;;;;5.00;4.00;;;;;15.16;74.16;100005.44;2069519;28;46579;-66
2023/03/13 03:00:46;;;;;;;;;4.00;4.00;;;;;15.17;73.92;99992.00;2069966;28;46188;-65
2023/03/13 03:01:46;;;;;;;;;4.67;3.67;;;;;15.17;74.00;99996.47;2070247;28;46405;-64
2023/03/13 03:02:46;;;;;;;;;4.00;3.67;;;;;15.17;73.66;99994.66;2069923;28;46702;-65
2023/03/13 03:03:47;;;;;;;;;3.00;3.00;;;;;15.17;73.79;99978.63;2084035;28;45518;-66
2023/03/13 03:04:47;;;;;;;;;3.33;2.67;;;;;15.19;73.75;99975.88;2100639;28;46183;-64
2023/03/13 03:05:48;;;;;;;;;3.67;3.67;;;;;15.19;73.62;99979.41;2101851;28;46316;-64
2023/03/13 03:06:49;;;;;;;;;4.00;4.00;;;;;15.20;74.15;99966.91;2103307;28;46300;-64
2023/03/13 03:07:50;;;;;;;;;4.00;3.00;;;;;15.20;73.85;99975.78;2104432;28;46768;-65
2023/03/13 03:08:50;;;;;;;;;4.00;4.00;;;;;15.20;73.47;99964.22;2099386;28;46785;-64
2023/03/13 03:09:51;;;;;;;;;5.00;4.00;;;;;15.21;73.66;99969.50;2101571;28;45668;-66
2023/03/13 03:10:51;;;;;;;;;4.33;4.00;;;;;15.21;73.69;99969.50;2105388;28;46906;-65
2023/03/13 03:11:51;;;;;;;;;3.33;3.00;;;;;15.22;73.86;99981.06;2102643;28;45912;-65
2023/03/13 03:12:52;;;;;;;;;4.67;4.67;;;;;15.21;73.32;99966.81;2099260;28;46971;-65
2023/03/13 03:13:52;;;;;;;;;4.00;3.00;;;;;15.21;73.30;99973.97;2105020;27;46645;-67
2023/03/13 03:14:52;;;;;;;;;2.33;2.33;;;;;15.20;73.62;99969.59;2101802;28;45232;-64
2023/03/13 03:15:53;;;;;;;;;3.00;3.00;;;;;15.21;73.53;99976.66;2103511;28;46306;-65
2023/03/13 03:16:53;;;;;;;;;2.00;1.00;;;;;15.20;73.63;99965.09;2095012;28;46771;-65
2023/03/13 03:17:53;;;;;;;;;4.67;3.00;;;;;15.19;73.36;99965.19;2103374;28;46315;-65
2023/03/13 03:18:54;;;;;;;;;3.67;3.67;;;;;15.18;73.35;99969.66;2107845;27;46513;-64
2023/03/13 03:19:54;;;;;;;;;5.00;4.00;;;;;15.19;73.16;99970.53;2097928;28;45656;-65
2023/03/13 03:20:55;;;;;;;;;2.67;2.67;;;;;15.19;73.62;99967.84;2098077;28;46289;-65
2023/03/13 03:21:55;;;;;;;;;6.00;4.33;;;;;15.18;73.36;99955.44;2107997;27;46282;-63
2023/03/13 03:22:55;;;;;;;;;5.33;3.67;;;;;15.19;73.37;99967.84;2086317;28;46517;-64
2023/03/13 03:23:56;;;;;;;;;5.33;5.33;;;;;15.19;73.62;99974.06;2088330;28;46645;-66
2023/03/13 03:24:56;;;;;;;;;4.67;4.00;;;;;15.18;73.47;99967.00;2091178;28;44947;-65
2023/03/13 03:25:56;;;;;;;;;3.67;3.67;;;;;15.19;73.23;99967.84;2096775;28;45034;-65
2023/03/13 03:26:57;;;;;;;;;5.67;5.67;;;;;15.17;73.87;99965.28;2102940;27;46808;-65
2023/03/13 03:27:57;;;;;;;;;3.33;3.33;;;;;15.18;73.36;99969.66;2103975;27;46170;-65
2023/03/13 03:28:57;;;;;;;;;5.33;4.33;;;;;15.18;73.69;99960.78;2105458;27;46492;-65
2023/03/13 03:29:58;;;;;;;;;3.33;3.00;;;;;15.19;73.36;99974.06;2103872;27;48333;-66
2023/03/13 03:31:03;;;;;;;;;5.00;4.00;;;;;15.19;73.58;99971.38;2103110;27;46319;-66
2023/03/13 03:32:04;;;;;;;;;3.75;3.75;;;;;15.19;73.38;99968.72;2106667;27;45636;-64
2023/03/13 03:33:04;;;;;;;;;4.67;3.33;;;;;15.19;73.53;99967.84;2106308;27;46821;-66
2023/03/13 03:34:05;;;;;;;;;4.67;4.00;;;;;15.19;73.50;99973.19;2107325;27;46389;-66
2023/03/13 03:35:06;;;;;;;;;5.00;3.67;;;;;15.19;73.43;99968.72;2105768;28;46597;-64
2023/03/13 03:36:12;;;;;;;;;5.33;5.33;;;;;15.19;73.19;99971.38;2106755;27;45699;-64
2023/03/13 03:37:12;;;;;;;;;4.00;4.00;;;;;15.19;73.45;99970.53;2105203;27;46706;-65
2023/03/13 03:38:13;;;;;;;;;4.00;3.00;;;;;15.21;73.35;99960.63;2105563;27;46477;-65
2023/03/13 03:39:13;;;;;;;;;3.00;3.00;;;;;15.21;73.08;99969.50;2101714;28;46761;-65
2023/03/13 03:40:13;;;;;;;;;3.67;3.67;;;;;15.22;73.00;99967.69;2104803;28;46416;-65
2023/03/13 03:41:14;;;;;;;;;3.33;3.33;;;;;15.22;73.16;99967.69;2100268;27;46153;-66
2023/03/13 03:42:15;;;;;;;;;5.50;4.00;;;;;15.22;73.37;99970.34;2106349;27;45918;-64
2023/03/13 03:43:15;;;;;;;;;4.33;4.33;;;;;15.23;73.44;99969.41;2102908;27;46435;-66
2023/03/13 03:44:15;;;;;;;;;4.00;4.00;;;;;15.23;73.31;99964.94;2104989;27;46296;-66
2023/03/13 03:45:16;;;;;;;;;3.33;3.33;;;;;15.23;73.47;99980.97;2104921;27;45919;-66
2023/03/13 03:46:16;;;;;;;;;3.33;3.33;;;;;15.24;73.20;99979.16;2103532;28;46191;-65
2023/03/13 03:47:16;;;;;;;;;5.33;4.67;;;;;15.24;73.52;99972.00;2100926;27;46007;-66
2023/03/13 03:48:17;;;;;;;;;4.00;4.00;;;;;15.25;73.28;99975.56;2102352;27;46439;-64
2023/03/13 03:49:17;;;;;;;;;2.00;2.00;;;;;15.24;73.52;99987.19;2095910;28;46230;-64
2023/03/13 03:50:18;;;;;;;;;4.67;4.00;;;;;15.26;73.35;99988.00;2090686;28;46477;-66
2023/03/13 03:51:18;;;;;;;;;6.33;4.33;;;;;15.26;73.34;99982.66;2089143;28;46427;-65
2023/03/13 03:52:18;;;;;;;;;4.33;3.33;;;;;15.24;73.17;99977.34;2099352;27;47008;-64
2023/03/13 03:53:19;;;;;;;;;3.00;3.00;;;;;15.26;73.33;99980.84;2100006;27;46648;-65
2023/03/13 03:54:20;;;;;;;;;2.00;2.00;;;;;15.26;73.40;99986.19;2096980;28;46778;-64
2023/03/13 03:55:20;;;;;;;;;3.00;3.00;;;;;15.26;73.29;99979.97;2099327;27;46549;-64
2023/03/13 03:56:20;;;;;;;;;6.00;4.00;;;;;15.26;73.13;99983.50;2099853;27;46802;-66
2023/03/13 03:57:21;;;;;;;;;2.67;2.67;;;;;15.26;72.99;99983.50;2101563;28;46672;-66
2023/03/13 03:58:21;;;;;;;;;5.33;5.33;;;;;15.25;73.04;99981.78;2103121;27;46604;-64
2023/03/13 03:59:21;;;;;;;;;1.00;1.00;;;;;15.28;73.39;99980.75;2105177;27;45940;-65
2023/03/13 04:00:22;;;;;;;;;5.33;5.33;;;;;15.26;72.66;99970.13;2105536;27;46405;-65
2023/03/13 04:01:22;;;;;;;;;6.00;5.00;;;;;15.26;73.01;99978.16;2105645;27;45743;-65
2023/03/13 04:02:23;;;;;;;;;4.00;4.00;;;;;15.26;73.29;99978.16;2105087;28;46405;-66
2023/03/13 04:03:24;;;;;;;;;5.00;4.67;;;;;15.26;72.92;99980.84;2105412;27;45945;-64
2023/03/13 04:04:24;;;;;;;;;4.75;4.00;;;;;15.26;72.78;99975.47;2105624;27;46987;-66
2023/03/13 04:05:25;;;;;;;;;4.00;4.00;;;;;15.26;73.17;99967.47;2104970;27;46509;-65
2023/03/13 04:06:25;;;;;;;;;4.67;4.67;;;;;15.26;72.59;99970.13;2105455;27;46155;-65
2023/03/13 04:07:26;;;;;;;;;5.00;5.00;;;;;15.26;72.56;99967.47;2095173;28;46330;-66
2023/03/13 04:08:26;;;;;;;;;5.00;4.00;;;;;15.27;72.63;99969.19;2096941;28;46392;-65
2023/03/13 04:09:26;;;;;;;;;4.33;4.33;;;;;15.27;72.50;99971.88;2091394;28;45554;-64
2023/03/13 04:10:27;;;;;;;;;6.33;5.33;;;;;15.29;72.67;99966.44;2099528;28;46998;-64
2023/03/13 04:11:27;;;;;;;;;3.00;3.00;;;;;15.27;73.01;99968.31;2106829;27;46615;-65
2023/03/13 04:12:27;;;;;;;;;5.00;4.00;;;;;15.28;72.85;99978.06;2098971;27;46629;-66
2023/03/13 04:13:28;;;;;;;;;6.00;4.67;;;;;15.28;73.08;99986.09;2105405;27;46257;-65
2023/03/13 04:14:28;;;;;;;;;5.33;4.33;;;;;15.27;72.58;99977.22;2094858;28;47068;-65
2023/03/13 04:15:28;;;;;;;;;0.67;0.67;;;;;15.28;73.02;99978.06;2096138;28;46506;-64
2023/03/13 04:16:29;;;;;;;;;4.00;4.00;;;;;15.27;72.71;99987.03;2104893;27;45144;-64
2023/03/13 04:17:30;;;;;;;;;4.67;4.00;;;;;15.27;72.84;99989.72;2104475;28;46783;-65
2023/03/13 04:18:30;;;;;;;;;4.00;3.00;;;;;15.25;72.87;99980.91;2104882;28;47617;-64
2023/03/13 04:19:30;;;;;;;;;5.33;5.33;;;;;15.27;72.70;99976.34;2104458;27;45985;-64
2023/03/13 04:20:31;;;;;;;;;5.67;4.67;;;;;15.27;73.02;99979.03;2100764;28;46398;-65
2023/03/13 04:21:32;;;;;;;;;4.67;4.00;;;;;15.27;73.06;99976.34;2094594;28;46512;-65
2023/03/13 04:22:32;;;;;;;;;4.50;3.75;;;;;15.28;72.68;99978.94;2088823;28;45383;-64
2023/03/13 04:23:33;;;;;;;;;3.00;3.00;;;;;15.28;72.61;99970.91;2104896;27;45498;-65
2023/03/13 04:24:33;;;;;;;;;4.00;4.00;;;;;15.28;73.17;99970.91;2105077;27;45736;-65
2023/03/13 04:25:34;;;;;;;;;6.00;3.33;;;;;15.28;72.97;99968.25;2105182;28;45886;-64
2023/03/13 04:26:34;;;;;;;;;4.00;4.00;;;;;15.28;72.58;99972.72;2100713;28;46410;-65
2023/03/13 04:27:34;;;;;;;;;7.00;6.00;;;;;15.28;72.72;99968.25;2104722;28;46266;-66
2023/03/13 04:28:35;;;;;;;;;6.67;6.67;;;;;15.29;73.03;99972.63;2101244;28;46017;-65
2023/03/13 04:29:35;;;;;;;;;5.00;5.00;;;;;15.30;72.87;99968.16;2096602;28;46662;-66
2023/03/13 04:30:35;;;;;;;;;4.67;4.67;;;;;15.29;72.77;99969.97;2098002;28;46646;-65
2023/03/13 04:31:36;;;;;;;;;5.00;5.00;;;;;15.29;73.05;99966.44;2098236;28;46250;-64
2023/03/13 04:32:36;;;;;;;;;5.33;3.33;;;;;15.30;72.78;99961.00;2102094;28;46230;-65
2023/03/13 04:33:36;;;;;;;;;4.00;4.00;;;;;15.29;72.96;99961.94;2102286;28;45697;-66
2023/03/13 04:34:37;;;;;;;;;5.00;5.00;;;;;15.31;73.08;99967.22;2111965;27;46257;-66
2023/03/13 04:35:37;;;;;;;;;5.33;5.33;;;;;15.29;72.67;99964.63;2096532;28;46252;-64
2023/03/13 04:36:37;;;;;;;;;6.00;3.33;;;;;15.29;73.03;99955.75;2099696;28;45752;-66
2023/03/13 04:37:38;;;;;;;;;4.67;4.33;;;;;15.28;73.15;99954.88;2105173;28;46729;-66
2023/03/13 04:38:38;;;;;;;;;5.00;5.00;;;;;15.28;72.56;99964.72;2103760;28;46883;-65
2023/03/13 04:39:38;;;;;;;;;5.67;4.00;;;;;15.28;73.07;99951.34;2094323;28;46300;-65
2023/03/13 04:40:39;;;;;;;;;7.00;6.00;;;;;15.28;72.63;99967.38;2087482;28;47038;-64
2023/03/13 04:41:39;;;;;;;;;5.33;4.00;;;;;15.27;72.80;99949.63;2100756;28;45763;-64
2023/03/13 04:42:40;;;;;;;;;5.33;4.33;;;;;15.28;72.48;99956.69;2103237;28;46659;-65
2023/03/13 04:43:41;;;;;;;;;6.75;6.25;;;;;15.28;72.65;99960.22;2104688;28;46525;-64
2023/03/13 04:44:41;;;;;;;;;4.33;4.33;;;;;15.27;72.98;99954.97;2104448;27;46636;-64
2023/03/13 04:45:41;;;;;;;;;4.00;4.00;;;;;15.28;73.00;99964.72;2098500;28;46568;-63
2023/03/13 04:46:42;;;;;;;;;6.67;4.67;;;;;15.28;72.48;99965.56;2104555;28;45763;-65
2023/03/13 04:47:42;;;;;;;;;5.00;5.00;;;;;15.28;72.39;99962.91;2096703;28;45038;-64
2023/03/13 04:48:42;;;;;;;;;4.33;4.00;;;;;15.28;72.77;99970.06;2101964;28;45557;-65
2023/03/13 04:49:43;;;;;;;;;4.00;4.00;;;;;15.28;72.46;99968.25;2100915;27;46088;-66